Terminal Aerodrome Forecast
Issued by NWS

Home | Current Version | Previous Version | Text Only | Print | Product List | Glossary On
Versions: 1 2 3 4 5 6 7 8 9 10 11 12 13 14 15 16 17 18 19 20 21 22 23 24 25 26 27 28 29 30 31 32 33 34 35 36 37 38 39 40 41
940
FTUS41 KRNK 230723 AAA
TAFLWB
TAF AMD
KLWB 230723Z 2307/2406 00000KT 1/4SM FG OVC001
     FM231400 VRB03KT 3SM BR BKN004
     FM231700 22005KT P6SM BKN030
     FM231900 22005KT P6SM BKN045
     FM240000 15004KT P6SM BKN030=

USA.gov is the U.S. government's official web portal to all federal, state and local government web resources and services.